sensor_id;sensor_type;location;lat;lon;timestamp;pressure;altitude;pressure_sealevel;temperature;humidity
73106;BME280;61559;50.476;15.588;2023-10-13T00:00:44;97633.04;;;12.93;93.83
73106;BME280;61559;50.476;15.588;2023-10-13T00:03:37;97637.63;;;12.91;93.90
73106;BME280;61559;50.476;15.588;2023-10-13T00:06:10;97638.05;;;12.91;93.93
73106;BME280;61559;50.476;15.588;2023-10-13T00:08:41;97641.39;;;12.91;94.05
73106;BME280;61559;50.476;15.588;2023-10-13T00:11:14;97644.15;;;12.92;94.04
73106;BME280;61559;50.476;15.588;2023-10-13T00:13:48;97638.34;;;12.93;94.12
73106;BME280;61559;50.476;15.588;2023-10-13T00:16:21;97634.27;;;12.92;94.02
73106;BME280;61559;50.476;15.588;2023-10-13T00:18:56;97632.81;;;12.91;94.06
73106;BME280;61559;50.476;15.588;2023-10-13T00:21:28;97632.02;;;12.89;94.10
73106;BME280;61559;50.476;15.588;2023-10-13T00:24:02;97630.98;;;12.87;94.21
73106;BME280;61559;50.476;15.588;2023-10-13T00:26:36;97628.73;;;12.86;94.33
73106;BME280;61559;50.476;15.588;2023-10-13T00:29:07;97631.29;;;12.85;94.36
73106;BME280;61559;50.476;15.588;2023-10-13T00:31:46;97633.11;;;12.85;94.31
73106;BME280;61559;50.476;15.588;2023-10-13T00:34:19;97629.95;;;12.85;94.47
73106;BME280;61559;50.476;15.588;2023-10-13T00:36:55;97628.94;;;12.86;94.46
73106;BME280;61559;50.476;15.588;2023-10-13T00:39:58;97624.29;;;12.90;94.41
73106;BME280;61559;50.476;15.588;2023-10-13T00:42:32;97628.86;;;12.88;94.36
73106;BME280;61559;50.476;15.588;2023-10-13T00:45:21;97630.71;;;12.88;94.39
73106;BME280;61559;50.476;15.588;2023-10-13T00:47:53;97629.86;;;12.89;94.41
73106;BME280;61559;50.476;15.588;2023-10-13T00:50:28;97625.70;;;12.88;94.33
73106;BME280;61559;50.476;15.588;2023-10-13T00:53:06;97628.42;;;12.88;94.43
73106;BME280;61559;50.476;15.588;2023-10-13T00:55:37;97624.35;;;12.88;94.50
73106;BME280;61559;50.476;15.588;2023-10-13T00:58:12;97628.43;;;12.88;94.52
73106;BME280;61559;50.476;15.588;2023-10-13T01:00:44;97631.53;;;12.88;94.52
73106;BME280;61559;50.476;15.588;2023-10-13T01:03:17;97630.70;;;12.90;94.57
73106;BME280;61559;50.476;15.588;2023-10-13T01:05:57;97628.38;;;12.91;94.57
73106;BME280;61559;50.476;15.588;2023-10-13T01:08:34;97623.47;;;12.92;94.50
73106;BME280;61559;50.476;15.588;2023-10-13T01:11:08;97624.14;;;12.92;94.44
73106;BME280;61559;50.476;15.588;2023-10-13T01:13:40;97619.30;;;12.89;94.43
73106;BME280;61559;50.476;15.588;2023-10-13T01:16:11;97619.80;;;12.86;94.50
73106;BME280;61559;50.476;15.588;2023-10-13T01:18:44;97622.60;;;12.86;94.59
73106;BME280;61559;50.476;15.588;2023-10-13T01:21:18;97622.98;;;12.86;94.70
73106;BME280;61559;50.476;15.588;2023-10-13T01:23:51;97623.36;;;12.87;94.67
73106;BME280;61559;50.476;15.588;2023-10-13T01:26:22;97620.44;;;12.88;94.79
73106;BME280;61559;50.476;15.588;2023-10-13T01:28:58;97621.80;;;12.89;94.63
73106;BME280;61559;50.476;15.588;2023-10-13T01:31:29;97623.67;;;12.90;94.68
73106;BME280;61559;50.476;15.588;2023-10-13T01:34:07;97626.30;;;12.88;94.64
73106;BME280;61559;50.476;15.588;2023-10-13T01:36:39;97634.36;;;12.89;94.70
73106;BME280;61559;50.476;15.588;2023-10-13T01:39:10;97633.34;;;12.89;94.87
73106;BME280;61559;50.476;15.588;2023-10-13T01:41:46;97631.05;;;12.91;94.87
73106;BME280;61559;50.476;15.588;2023-10-13T01:44:23;97632.84;;;12.92;94.81
73106;BME280;61559;50.476;15.588;2023-10-13T01:46:58;97634.13;;;12.93;94.93
73106;BME280;61559;50.476;15.588;2023-10-13T01:49:36;97634.64;;;12.95;94.69
73106;BME280;61559;50.476;15.588;2023-10-13T01:52:12;97635.05;;;12.96;94.69
73106;BME280;61559;50.476;15.588;2023-10-13T01:54:46;97637.08;;;12.97;94.69
73106;BME280;61559;50.476;15.588;2023-10-13T01:57:19;97639.78;;;12.98;94.72
73106;BME280;61559;50.476;15.588;2023-10-13T01:59:54;97640.34;;;12.99;94.58
73106;BME280;61559;50.476;15.588;2023-10-13T02:02:26;97636.29;;;13.01;94.54
73106;BME280;61559;50.476;15.588;2023-10-13T02:05:00;97638.84;;;13.01;94.53
73106;BME280;61559;50.476;15.588;2023-10-13T02:07:33;97636.86;;;13.02;94.49
73106;BME280;61559;50.476;15.588;2023-10-13T02:10:06;97637.23;;;13.02;94.47
73106;BME280;61559;50.476;15.588;2023-10-13T02:12:41;97635.29;;;13.01;94.49
73106;BME280;61559;50.476;15.588;2023-10-13T02:15:16;97638.84;;;13.01;94.54
73106;BME280;61559;50.476;15.588;2023-10-13T02:17:56;97642.16;;;13.01;94.42
73106;BME280;61559;50.476;15.588;2023-10-13T02:20:30;97647.08;;;13.01;94.51
73106;BME280;61559;50.476;15.588;2023-10-13T02:23:11;97648.88;;;13.01;94.50
73106;BME280;61559;50.476;15.588;2023-10-13T02:25:42;97647.28;;;13.02;94.42
73106;BME280;61559;50.476;15.588;2023-10-13T02:28:16;97648.58;;;13.03;94.53
73106;BME280;61559;50.476;15.588;2023-10-13T02:31:00;97648.91;;;13.04;94.45
73106;BME280;61559;50.476;15.588;2023-10-13T02:33:34;97649.15;;;13.05;94.45
73106;BME280;61559;50.476;15.588;2023-10-13T02:36:06;97648.63;;;13.05;94.42
73106;BME280;61559;50.476;15.588;2023-10-13T02:38:38;97647.14;;;13.05;94.42
73106;BME280;61559;50.476;15.588;2023-10-13T02:41:16;97646.58;;;13.03;94.44
73106;BME280;61559;50.476;15.588;2023-10-13T02:43:56;97651.70;;;13.02;94.45
73106;BME280;61559;50.476;15.588;2023-10-13T02:46:27;97653.08;;;13.01;94.42
73106;BME280;61559;50.476;15.588;2023-10-13T02:49:00;97657.71;;;13.00;94.63
73106;BME280;61559;50.476;15.588;2023-10-13T02:51:39;97661.32;;;13.00;94.61
73106;BME280;61559;50.476;15.588;2023-10-13T02:54:12;97664.58;;;13.00;94.72
73106;BME280;61559;50.476;15.588;2023-10-13T02:56:48;97665.73;;;12.99;94.64
73106;BME280;61559;50.476;15.588;2023-10-13T02:59:28;97663.75;;;12.99;94.72
73106;BME280;61559;50.476;15.588;2023-10-13T03:02:09;97661.05;;;13.01;94.80
73106;BME280;61559;50.476;15.588;2023-10-13T03:04:55;97660.06;;;13.02;94.69
73106;BME280;61559;50.476;15.588;2023-10-13T03:07:32;97659.48;;;13.03;94.75
73106;BME280;61559;50.476;15.588;2023-10-13T03:10:05;97661.42;;;13.03;94.58
73106;BME280;61559;50.476;15.588;2023-10-13T03:12:41;97661.40;;;13.02;94.74
73106;BME280;61559;50.476;15.588;2023-10-13T03:15:18;97663.61;;;13.03;94.74
73106;BME280;61559;50.476;15.588;2023-10-13T03:17:51;97658.23;;;13.03;94.80
73106;BME280;61559;50.476;15.588;2023-10-13T03:20:25;97659.38;;;13.04;94.88
73106;BME280;61559;50.476;15.588;2023-10-13T03:23:01;97664.39;;;13.05;94.85
73106;BME280;61559;50.476;15.588;2023-10-13T03:25:39;97657.53;;;13.06;94.66
73106;BME280;61559;50.476;15.588;2023-10-13T03:28:13;97654.38;;;13.06;94.74
73106;BME280;61559;50.476;15.588;2023-10-13T03:30:47;97655.90;;;13.08;94.68
73106;BME280;61559;50.476;15.588;2023-10-13T03:33:23;97650.02;;;13.09;94.68
73106;BME280;61559;50.476;15.588;2023-10-13T03:35:57;97648.55;;;13.09;94.62
73106;BME280;61559;50.476;15.588;2023-10-13T03:38:35;97646.14;;;13.08;94.58
73106;BME280;61559;50.476;15.588;2023-10-13T03:41:09;97644.29;;;13.08;94.64
73106;BME280;61559;50.476;15.588;2023-10-13T03:43:50;97641.23;;;13.07;94.65
73106;BME280;61559;50.476;15.588;2023-10-13T03:46:22;97636.77;;;13.06;94.66
73106;BME280;61559;50.476;15.588;2023-10-13T03:48:53;97641.14;;;13.06;94.68
73106;BME280;61559;50.476;15.588;2023-10-13T03:51:30;97643.36;;;13.06;94.73
73106;BME280;61559;50.476;15.588;2023-10-13T03:54:02;97646.55;;;13.07;94.78
73106;BME280;61559;50.476;15.588;2023-10-13T03:56:38;97649.58;;;13.07;94.72
73106;BME280;61559;50.476;15.588;2023-10-13T03:59:14;97645.86;;;13.06;94.70
73106;BME280;61559;50.476;15.588;2023-10-13T04:01:53;97644.89;;;13.06;94.70
73106;BME280;61559;50.476;15.588;2023-10-13T04:04:29;97642.74;;;13.06;94.71
73106;BME280;61559;50.476;15.588;2023-10-13T04:07:05;97637.95;;;13.06;94.62
73106;BME280;61559;50.476;15.588;2023-10-13T04:10:00;97640.88;;;13.05;94.67
73106;BME280;61559;50.476;15.588;2023-10-13T04:12:45;97641.26;;;13.03;94.57
73106;BME280;61559;50.476;15.588;2023-10-13T04:15:33;97646.27;;;13.03;94.75
73106;BME280;61559;50.476;15.588;2023-10-13T04:18:11;97646.98;;;13.02;94.82
73106;BME280;61559;50.476;15.588;2023-10-13T04:21:03;97648.73;;;12.99;94.67
73106;BME280;61559;50.476;15.588;2023-10-13T04:23:49;97643.56;;;12.96;94.98
73106;BME280;61559;50.476;15.588;2023-10-13T04:26:37;97642.35;;;12.96;95.04
73106;BME280;61559;50.476;15.588;2023-10-13T04:29:30;97639.04;;;12.96;95.04
73106;BME280;61559;50.476;15.588;2023-10-13T04:32:15;97631.50;;;12.98;95.16
73106;BME280;61559;50.476;15.588;2023-10-13T04:34:59;97635.17;;;12.99;95.07
73106;BME280;61559;50.476;15.588;2023-10-13T04:37:39;97632.06;;;12.99;95.00
73106;BME280;61559;50.476;15.588;2023-10-13T04:40:21;97627.19;;;13.00;94.95
73106;BME280;61559;50.476;15.588;2023-10-13T04:42:55;97619.86;;;12.99;94.90
73106;BME280;61559;50.476;15.588;2023-10-13T04:45:27;97620.89;;;12.98;95.01
73106;BME280;61559;50.476;15.588;2023-10-13T04:48:16;97614.10;;;12.99;94.86
73106;BME280;61559;50.476;15.588;2023-10-13T04:51:03;97614.02;;;12.98;94.77
73106;BME280;61559;50.476;15.588;2023-10-13T04:54:19;97610.08;;;12.97;94.70
73106;BME280;61559;50.476;15.588;2023-10-13T04:57:03;97612.17;;;12.97;94.80
73106;BME280;61559;50.476;15.588;2023-10-13T04:59:56;97618.30;;;12.94;94.70
73106;BME280;61559;50.476;15.588;2023-10-13T05:02:46;97620.48;;;12.92;94.66
73106;BME280;61559;50.476;15.588;2023-10-13T05:05:46;97615.83;;;12.87;94.74
73106;BME280;61559;50.476;15.588;2023-10-13T05:08:32;97620.19;;;12.85;94.76
73106;BME280;61559;50.476;15.588;2023-10-13T05:11:21;97618.73;;;12.84;94.78
73106;BME280;61559;50.476;15.588;2023-10-13T05:14:09;97616.93;;;12.82;94.68
73106;BME280;61559;50.476;15.588;2023-10-13T05:16:58;97619.06;;;12.82;94.71
73106;BME280;61559;50.476;15.588;2023-10-13T05:19:47;97620.13;;;12.81;94.63
73106;BME280;61559;50.476;15.588;2023-10-13T05:22:36;97631.14;;;12.81;94.86
73106;BME280;61559;50.476;15.588;2023-10-13T05:25:25;97646.40;;;12.80;94.82
73106;BME280;61559;50.476;15.588;2023-10-13T05:28:13;97650.85;;;12.79;94.82
73106;BME280;61559;50.476;15.588;2023-10-13T05:31:05;97650.42;;;12.79;94.87
73106;BME280;61559;50.476;15.588;2023-10-13T05:33:54;97653.02;;;12.79;95.04
73106;BME280;61559;50.476;15.588;2023-10-13T05:36:43;97655.86;;;12.80;95.12
73106;BME280;61559;50.476;15.588;2023-10-13T05:39:32;97650.61;;;12.83;95.22
73106;BME280;61559;50.476;15.588;2023-10-13T05:42:20;97652.61;;;12.85;95.19
73106;BME280;61559;50.476;15.588;2023-10-13T05:45:10;97657.79;;;12.87;95.13
73106;BME280;61559;50.476;15.588;2023-10-13T05:48:07;97651.57;;;12.89;95.17
73106;BME280;61559;50.476;15.588;2023-10-13T05:50:44;97653.98;;;12.90;95.26
73106;BME280;61559;50.476;15.588;2023-10-13T05:53:48;97650.33;;;12.91;95.35
73106;BME280;61559;50.476;15.588;2023-10-13T05:56:36;97652.02;;;12.93;95.34
73106;BME280;61559;50.476;15.588;2023-10-13T05:59:25;97646.30;;;12.97;95.51
73106;BME280;61559;50.476;15.588;2023-10-13T06:02:17;97645.34;;;13.02;95.53
73106;BME280;61559;50.476;15.588;2023-10-13T06:05:07;97651.06;;;13.09;95.64
73106;BME280;61559;50.476;15.588;2023-10-13T06:07:57;97652.19;;;13.18;95.84
73106;BME280;61559;50.476;15.588;2023-10-13T06:10:47;97653.86;;;13.28;95.86
73106;BME280;61559;50.476;15.588;2023-10-13T06:13:44;97656.17;;;13.38;95.89
73106;BME280;61559;50.476;15.588;2023-10-13T06:16:31;97668.22;;;13.44;95.83
73106;BME280;61559;50.476;15.588;2023-10-13T06:19:19;97669.94;;;13.49;95.77
73106;BME280;61559;50.476;15.588;2023-10-13T06:22:08;97671.93;;;13.54;95.81
73106;BME280;61559;50.476;15.588;2023-10-13T06:24:57;97679.64;;;13.59;95.57
73106;BME280;61559;50.476;15.588;2023-10-13T06:27:46;97683.90;;;13.65;95.55
73106;BME280;61559;50.476;15.588;2023-10-13T06:30:55;97687.42;;;13.71;95.60
73106;BME280;61559;50.476;15.588;2023-10-13T06:33:27;97685.71;;;13.77;95.78
73106;BME280;61559;50.476;15.588;2023-10-13T06:36:02;97691.16;;;13.84;95.76
73106;BME280;61559;50.476;15.588;2023-10-13T06:38:39;97697.05;;;13.88;95.58
73106;BME280;61559;50.476;15.588;2023-10-13T06:41:11;97699.27;;;13.94;95.56
73106;BME280;61559;50.476;15.588;2023-10-13T06:43:50;97704.05;;;13.99;95.59
73106;BME280;61559;50.476;15.588;2023-10-13T06:46:30;97709.25;;;14.05;95.45
73106;BME280;61559;50.476;15.588;2023-10-13T06:49:04;97707.98;;;14.09;95.41
73106;BME280;61559;50.476;15.588;2023-10-13T06:51:35;97711.61;;;14.14;95.42
73106;BME280;61559;50.476;15.588;2023-10-13T06:54:08;97710.94;;;14.19;95.43
73106;BME280;61559;50.476;15.588;2023-10-13T06:56:49;97708.98;;;14.25;95.35
73106;BME280;61559;50.476;15.588;2023-10-13T06:59:23;97714.50;;;14.31;95.30
73106;BME280;61559;50.476;15.588;2023-10-13T07:01:57;97713.10;;;14.39;95.30
73106;BME280;61559;50.476;15.588;2023-10-13T07:04:53;97706.70;;;14.47;95.38
73106;BME280;61559;50.476;15.588;2023-10-13T07:07:38;97704.63;;;14.57;95.43
73106;BME280;61559;50.476;15.588;2023-10-13T07:10:11;97701.97;;;14.65;95.27
73106;BME280;61559;50.476;15.588;2023-10-13T07:12:43;97702.42;;;14.73;95.11
73106;BME280;61559;50.476;15.588;2023-10-13T07:15:15;97701.84;;;14.83;95.08
73106;BME280;61559;50.476;15.588;2023-10-13T07:17:50;97706.79;;;14.93;94.81
73106;BME280;61559;50.476;15.588;2023-10-13T07:20:25;97704.35;;;15.04;94.88
73106;BME280;61559;50.476;15.588;2023-10-13T07:23:04;97705.98;;;15.12;94.57
73106;BME280;61559;50.476;15.588;2023-10-13T07:25:36;97711.62;;;15.21;94.16
73106;BME280;61559;50.476;15.588;2023-10-13T07:28:10;97713.88;;;15.30;94.25
73106;BME280;61559;50.476;15.588;2023-10-13T07:30:44;97722.38;;;15.40;94.14
73106;BME280;61559;50.476;15.588;2023-10-13T07:33:19;97726.04;;;15.50;93.67
73106;BME280;61559;50.476;15.588;2023-10-13T07:36:00;97724.64;;;15.56;93.15
73106;BME280;61559;50.476;15.588;2023-10-13T07:38:40;97719.35;;;15.61;92.54
73106;BME280;61559;50.476;15.588;2023-10-13T07:41:12;97713.71;;;15.67;92.28
73106;BME280;61559;50.476;15.588;2023-10-13T07:43:45;97715.33;;;15.72;91.89
73106;BME280;61559;50.476;15.588;2023-10-13T07:46:18;97709.51;;;15.77;91.61
73106;BME280;61559;50.476;15.588;2023-10-13T07:48:58;97704.74;;;15.83;91.57
73106;BME280;61559;50.476;15.588;2023-10-13T07:51:39;97702.51;;;15.89;91.23
73106;BME280;61559;50.476;15.588;2023-10-13T07:54:14;97697.89;;;15.94;91.06
73106;BME280;61559;50.476;15.588;2023-10-13T07:56:52;97694.95;;;15.99;90.69
73106;BME280;61559;50.476;15.588;2023-10-13T07:59:24;97693.32;;;16.02;90.63
73106;BME280;61559;50.476;15.588;2023-10-13T08:01:58;97692.86;;;16.05;90.17
73106;BME280;61559;50.476;15.588;2023-10-13T08:04:44;97696.09;;;16.06;89.45
73106;BME280;61559;50.476;15.588;2023-10-13T08:07:17;97700.39;;;16.06;89.37
73106;BME280;61559;50.476;15.588;2023-10-13T08:09:59;97708.87;;;16.07;88.88
73106;BME280;61559;50.476;15.588;2023-10-13T08:12:31;97708.83;;;16.09;89.15
73106;BME280;61559;50.476;15.588;2023-10-13T08:15:03;97716.52;;;16.11;88.60
73106;BME280;61559;50.476;15.588;2023-10-13T08:17:51;97712.59;;;16.17;88.89
73106;BME280;61559;50.476;15.588;2023-10-13T08:20:23;97711.80;;;16.24;89.41
73106;BME280;61559;50.476;15.588;2023-10-13T08:22:56;97702.19;;;16.33;89.39
73106;BME280;61559;50.476;15.588;2023-10-13T08:25:43;97698.75;;;16.42;89.15
73106;BME280;61559;50.476;15.588;2023-10-13T08:28:31;97699.52;;;16.52;88.58
73106;BME280;61559;50.476;15.588;2023-10-13T08:31:27;97690.98;;;16.55;87.16
73106;BME280;61559;50.476;15.588;2023-10-13T08:34:00;97692.05;;;16.57;87.13
73106;BME280;61559;50.476;15.588;2023-10-13T08:36:36;97696.73;;;16.57;86.98
73106;BME280;61559;50.476;15.588;2023-10-13T08:39:08;97696.45;;;16.64;87.33
73106;BME280;61559;50.476;15.588;2023-10-13T08:42:07;97701.25;;;16.73;87.21
73106;BME280;61559;50.476;15.588;2023-10-13T08:44:45;97698.14;;;16.77;86.99
73106;BME280;61559;50.476;15.588;2023-10-13T08:47:22;97699.75;;;16.83;87.04
73106;BME280;61559;50.476;15.588;2023-10-13T08:49:58;97697.35;;;16.90;86.51
73106;BME280;61559;50.476;15.588;2023-10-13T08:52:41;97701.87;;;16.93;86.09
73106;BME280;61559;50.476;15.588;2023-10-13T08:55:19;97705.06;;;16.92;85.69
73106;BME280;61559;50.476;15.588;2023-10-13T08:58:16;97705.48;;;16.91;85.90
73106;BME280;61559;50.476;15.588;2023-10-13T09:00:55;97706.93;;;16.93;85.74
73106;BME280;61559;50.476;15.588;2023-10-13T09:03:42;97707.05;;;16.95;86.14
73106;BME280;61559;50.476;15.588;2023-10-13T09:06:20;97704.24;;;16.96;85.83
73106;BME280;61559;50.476;15.588;2023-10-13T09:08:52;97703.10;;;16.95;85.94
73106;BME280;61559;50.476;15.588;2023-10-13T09:11:36;97696.19;;;16.95;85.88
73106;BME280;61559;50.476;15.588;2023-10-13T09:14:20;97698.59;;;16.96;85.96
73106;BME280;61559;50.476;15.588;2023-10-13T09:17:06;97699.38;;;16.95;85.88
73106;BME280;61559;50.476;15.588;2023-10-13T09:20:05;97697.05;;;16.93;85.42
73106;BME280;61559;50.476;15.588;2023-10-13T09:23:09;97693.40;;;16.93;85.82
73106;BME280;61559;50.476;15.588;2023-10-13T09:25:42;97689.93;;;16.94;85.68
73106;BME280;61559;50.476;15.588;2023-10-13T09:28:30;97680.78;;;16.98;85.67
73106;BME280;61559;50.476;15.588;2023-10-13T09:31:01;97686.83;;;17.02;85.59
73106;BME280;61559;50.476;15.588;2023-10-13T09:33:37;97686.71;;;17.09;85.42
73106;BME280;61559;50.476;15.588;2023-10-13T09:36:18;97687.59;;;17.16;85.61
73106;BME280;61559;50.476;15.588;2023-10-13T09:38:50;97695.42;;;17.25;85.44
73106;BME280;61559;50.476;15.588;2023-10-13T09:41:42;97693.63;;;17.29;84.35
73106;BME280;61559;50.476;15.588;2023-10-13T09:44:14;97687.70;;;17.30;84.22
73106;BME280;61559;50.476;15.588;2023-10-13T09:46:48;97681.73;;;17.35;84.98
73106;BME280;61559;50.476;15.588;2023-10-13T09:49:25;97674.36;;;17.38;83.89
73106;BME280;61559;50.476;15.588;2023-10-13T09:52:19;97680.69;;;17.39;84.22
73106;BME280;61559;50.476;15.588;2023-10-13T09:55:09;97679.95;;;17.40;83.86
73106;BME280;61559;50.476;15.588;2023-10-13T09:57:47;97681.38;;;17.40;83.98
73106;BME280;61559;50.476;15.588;2023-10-13T10:00:31;97679.69;;;17.42;83.78
73106;BME280;61559;50.476;15.588;2023-10-13T10:03:17;97678.30;;;17.43;83.74
73106;BME280;61559;50.476;15.588;2023-10-13T10:06:08;97671.48;;;17.44;83.35
73106;BME280;61559;50.476;15.588;2023-10-13T10:08:47;97673.33;;;17.48;83.87
73106;BME280;61559;50.476;15.588;2023-10-13T10:11:56;97668.01;;;17.55;83.75
73106;BME280;61559;50.476;15.588;2023-10-13T10:14:45;97660.71;;;17.59;83.20
73106;BME280;61559;50.476;15.588;2023-10-13T10:17:19;97661.79;;;17.64;83.45
73106;BME280;61559;50.476;15.588;2023-10-13T10:19:52;97656.43;;;17.73;83.14
73106;BME280;61559;50.476;15.588;2023-10-13T10:22:29;97658.39;;;17.80;82.72
73106;BME280;61559;50.476;15.588;2023-10-13T10:25:04;97655.58;;;17.85;82.75
73106;BME280;61559;50.476;15.588;2023-10-13T10:27:57;97655.42;;;17.90;82.49
73106;BME280;61559;50.476;15.588;2023-10-13T10:30:29;97651.26;;;17.95;82.44
73106;BME280;61559;50.476;15.588;2023-10-13T10:33:03;97650.92;;;18.03;82.66
73106;BME280;61559;50.476;15.588;2023-10-13T10:35:43;97652.23;;;18.12;82.06
73106;BME280;61559;50.476;15.588;2023-10-13T10:38:16;97651.39;;;18.15;81.50
73106;BME280;61559;50.476;15.588;2023-10-13T10:40:56;97652.52;;;18.16;81.38
73106;BME280;61559;50.476;15.588;2023-10-13T10:43:29;97644.20;;;18.17;81.19
73106;BME280;61559;50.476;15.588;2023-10-13T10:46:13;97646.91;;;18.20;81.36
73106;BME280;61559;50.476;15.588;2023-10-13T10:48:47;97642.21;;;18.21;81.09
73106;BME280;61559;50.476;15.588;2023-10-13T10:51:18;97637.18;;;18.16;80.78
73106;BME280;61559;50.476;15.588;2023-10-13T10:53:56;97633.48;;;18.13;81.08
73106;BME280;61559;50.476;15.588;2023-10-13T10:56:27;97626.61;;;18.17;81.57
73106;BME280;61559;50.476;15.588;2023-10-13T10:59:08;97614.99;;;18.25;81.21
73106;BME280;61559;50.476;15.588;2023-10-13T11:01:48;97609.98;;;18.34;81.35
73106;BME280;61559;50.476;15.588;2023-10-13T11:04:21;97607.36;;;18.46;81.11
73106;BME280;61559;50.476;15.588;2023-10-13T11:07:03;97604.09;;;18.58;80.67
73106;BME280;61559;50.476;15.588;2023-10-13T11:09:36;97597.59;;;18.68;80.56
73106;BME280;61559;50.476;15.588;2023-10-13T11:12:13;97593.48;;;18.75;79.49
73106;BME280;61559;50.476;15.588;2023-10-13T11:15:03;97589.81;;;18.80;79.04
73106;BME280;61559;50.476;15.588;2023-10-13T11:17:49;97587.79;;;18.86;79.21
73106;BME280;61559;50.476;15.588;2023-10-13T11:20:24;97580.55;;;18.93;79.12
73106;BME280;61559;50.476;15.588;2023-10-13T11:23:10;97579.95;;;19.01;79.34
73106;BME280;61559;50.476;15.588;2023-10-13T11:25:41;97580.77;;;19.12;79.29
73106;BME280;61559;50.476;15.588;2023-10-13T11:28:15;97585.23;;;19.19;77.86
73106;BME280;61559;50.476;15.588;2023-10-13T11:30:50;97589.22;;;19.23;77.92
73106;BME280;61559;50.476;15.588;2023-10-13T11:33:22;97590.38;;;19.26;78.03
73106;BME280;61559;50.476;15.588;2023-10-13T11:35:54;97589.45;;;19.32;78.15
73106;BME280;61559;50.476;15.588;2023-10-13T11:38:33;97583.16;;;19.39;78.14
73106;BME280;61559;50.476;15.588;2023-10-13T11:41:17;97574.88;;;19.48;78.13
73106;BME280;61559;50.476;15.588;2023-10-13T11:43:50;97573.61;;;19.55;77.53
73106;BME280;61559;50.476;15.588;2023-10-13T11:46:40;97572.63;;;19.64;77.34
73106;BME280;61559;50.476;15.588;2023-10-13T11:49:30;97569.63;;;19.72;76.07
73106;BME280;61559;50.476;15.588;2023-10-13T11:52:08;97565.48;;;19.80;76.69
73106;BME280;61559;50.476;15.588;2023-10-13T11:54:48;97564.95;;;19.89;77.09
73106;BME280;61559;50.476;15.588;2023-10-13T11:57:19;97558.83;;;19.96;76.58
73106;BME280;61559;50.476;15.588;2023-10-13T11:59:51;97553.67;;;19.97;75.77
73106;BME280;61559;50.476;15.588;2023-10-13T12:02:49;97545.75;;;19.89;75.18
73106;BME280;61559;50.476;15.588;2023-10-13T12:05:38;97547.95;;;19.83;75.50
73106;BME280;61559;50.476;15.588;2023-10-13T12:08:36;97534.55;;;19.77;76.03
73106;BME280;61559;50.476;15.588;2023-10-13T12:11:17;97525.94;;;19.72;74.95
73106;BME280;61559;50.476;15.588;2023-10-13T12:14:01;97531.96;;;19.67;75.73
73106;BME280;61559;50.476;15.588;2023-10-13T12:16:41;97534.05;;;19.68;75.94
73106;BME280;61559;50.476;15.588;2023-10-13T12:19:13;97529.58;;;19.67;75.85
73106;BME280;61559;50.476;15.588;2023-10-13T12:21:46;97523.30;;;19.67;76.48
73106;BME280;61559;50.476;15.588;2023-10-13T12:24:18;97520.69;;;19.68;76.36
73106;BME280;61559;50.476;15.588;2023-10-13T12:27:10;97520.23;;;19.68;76.30
73106;BME280;61559;50.476;15.588;2023-10-13T12:29:53;97518.46;;;19.70;76.94
73106;BME280;61559;50.476;15.588;2023-10-13T12:32:26;97522.07;;;19.75;77.25
73106;BME280;61559;50.476;15.588;2023-10-13T12:35:01;97519.48;;;19.81;77.32
73106;BME280;61559;50.476;15.588;2023-10-13T12:37:46;97518.48;;;19.88;77.40
73106;BME280;61559;50.476;15.588;2023-10-13T12:40:21;97513.72;;;19.97;77.44
73106;BME280;61559;50.476;15.588;2023-10-13T12:43:11;97516.80;;;20.01;76.73
73106;BME280;61559;50.476;15.588;2023-10-13T12:46:00;97519.71;;;20.01;76.40
73106;BME280;61559;50.476;15.588;2023-10-13T12:48:49;97516.50;;;20.00;76.81
73106;BME280;61559;50.476;15.588;2023-10-13T12:51:34;97508.35;;;20.00;76.65
73106;BME280;61559;50.476;15.588;2023-10-13T12:54:20;97504.03;;;20.02;77.06
73106;BME280;61559;50.476;15.588;2023-10-13T12:56:53;97499.19;;;20.07;76.94
73106;BME280;61559;50.476;15.588;2023-10-13T12:59:27;97500.09;;;20.08;76.42
73106;BME280;61559;50.476;15.588;2023-10-13T13:01:58;97497.63;;;20.08;76.73
73106;BME280;61559;50.476;15.588;2023-10-13T13:04:30;97490.02;;;20.10;77.07
73106;BME280;61559;50.476;15.588;2023-10-13T13:07:06;97483.90;;;20.11;76.96
73106;BME280;61559;50.476;15.588;2023-10-13T13:09:41;97475.98;;;20.10;77.10
73106;BME280;61559;50.476;15.588;2023-10-13T13:12:13;97475.58;;;20.06;77.30
73106;BME280;61559;50.476;15.588;2023-10-13T13:14:44;97473.11;;;20.05;77.61
73106;BME280;61559;50.476;15.588;2023-10-13T13:17:16;97470.72;;;20.04;77.66
73106;BME280;61559;50.476;15.588;2023-10-13T13:19:48;97470.71;;;20.03;77.84
73106;BME280;61559;50.476;15.588;2023-10-13T13:22:19;97465.94;;;20.04;77.78
73106;BME280;61559;50.476;15.588;2023-10-13T13:24:50;97460.88;;;20.06;77.90
73106;BME280;61559;50.476;15.588;2023-10-13T13:27:22;97458.93;;;20.08;77.99
73106;BME280;61559;50.476;15.588;2023-10-13T13:29:54;97461.77;;;20.07;76.92
73106;BME280;61559;50.476;15.588;2023-10-13T13:32:27;97459.96;;;20.03;76.26
73106;BME280;61559;50.476;15.588;2023-10-13T13:34:59;97452.48;;;19.99;76.35
73106;BME280;61559;50.476;15.588;2023-10-13T13:37:33;97451.66;;;20.00;77.13
73106;BME280;61559;50.476;15.588;2023-10-13T13:40:08;97451.21;;;19.99;77.12
73106;BME280;61559;50.476;15.588;2023-10-13T13:42:52;97446.07;;;20.02;76.45
73106;BME280;61559;50.476;15.588;2023-10-13T13:45:26;97442.55;;;20.01;76.40
73106;BME280;61559;50.476;15.588;2023-10-13T13:47:58;97440.39;;;20.02;76.31
73106;BME280;61559;50.476;15.588;2023-10-13T13:50:29;97432.33;;;20.02;76.44
73106;BME280;61559;50.476;15.588;2023-10-13T13:53:02;97437.27;;;20.03;76.31